Latest Weather Observations for Maitland Airport

IDN60801

Issued at 6:03 am EST Thursday 30 June 2022 (issued every 10 minutes, with the page automatically refreshed every 10 minutes)

About weather observations | Map of weather stations | Latest weather observations for NSW | Other Formats
Station Details ID: 061428 Name: MAITLAND AIRPORT AWS Lat: -32.70 Lon: 151.49 Height: 27.5 m
Data from the previous 72 hours. | See also: Recent months at Maitland Airport
Date/Time
EST
Temp
°C
App
Temp
°C
Dew
Point
°C
Rel
Hum
%
Delta-T
°C
Wind Press
QNH
hPa
Press
MSL
hPa
Rain since
9am
mm
Dir  Spd
km/h
Gust
km/h
Spd
kts
Gust
kts
30/06:00am 9.2 7.5 8.3 94 0.4 WNW 7 13 4 7 1022.6 1022.6 0.0
30/05:30am 8.9 8.1 8.3 96 0.3 WNW 2 7 1 4 1022.4 1022.4 0.0
30/05:00am 8.6 7.1 8.3 98 0.1 WNW 6 7 3 4 1022.2 1022.2 0.0
30/04:30am 8.5 7.0 8.4 99 0.0 WNW 6 9 3 5 1022.3 1022.3 0.0
30/04:00am 8.2 7.4 8.1 99 0.0 WNW 2 7 1 4 1021.8 1021.8 0.0
30/03:30am 8.5 8.1 8.4 99 0.0 CALM 0 0 0 0 1022.2 1022.2 0.0
30/03:00am 8.5 8.1 8.4 99 0.0 CALM 0 6 0 3 1022.7 1022.7 0.0
30/02:30am 8.6 6.6 8.6 100 0.0 WNW 9 13 5 7 1022.9 1022.9 0.0
30/02:00am 7.6 7.0 7.6 100 0.0 CALM 0 0 0 0 1022.5 1022.5 0.0
30/01:30am 7.5 6.9 7.5 100 0.0 CALM 0 0 0 0 1022.3 1022.3 0.0
30/01:00am 7.2 6.6 7.2 100 0.0 CALM 0 0 0 0 1022.4 1022.4 0.0
30/12:30am 6.9 6.2 6.8 99 0.0 CALM 0 0 0 0 1022.6 1022.6 0.0
30/12:00am 7.0 6.3 6.9 99 0.0 CALM 0 0 0 0 1022.9 1022.9 0.0
 
Date/Time
EST
Temp
°C
App
Temp
°C
Dew
Point
°C
Rel
Hum
%
Delta-T
°C
Wind Press
QNH
hPa
Press
MSL
hPa
Rain since
9am
mm
Dir  Spd
km/h
Gust
km/h
Spd
kts
Gust
kts
29/11:30pm 7.6 7.0 7.5 99 0.0 CALM 0 0 0 0 1022.8 1022.8 0.0
29/11:00pm 7.6 7.0 7.5 99 0.0 CALM 0 0 0 0 1023.1 1023.1 0.0
29/10:30pm 8.4 8.0 8.3 99 0.0 CALM 0 0 0 0 1023.3 1023.3 0.0
29/10:00pm 8.3 6.7 8.0 98 0.1 NNE 6 9 3 5 1023.8 1023.8 0.0
29/09:30pm 7.8 7.2 7.4 97 0.2 CALM 0 0 0 0 1023.5 1023.5 0.0
29/09:00pm 8.7 8.3 8.4 98 0.1 CALM 0 0 0 0 1023.5 1023.5 0.0
29/08:30pm 8.9 8.6 8.5 97 0.2 CALM 0 0 0 0 1023.7 1023.7 0.0
29/08:00pm 8.9 6.9 8.5 97 0.2 NNE 9 11 5 6 1023.8 1023.8 0.0
29/07:30pm 9.5 9.3 8.9 96 0.3 CALM 0 0 0 0 1023.3 1023.3 0.0
29/07:00pm 10.0 8.8 9.4 96 0.3 NNE 6 7 3 4 1023.6 1023.6 0.0
29/06:30pm 10.1 8.6 9.0 93 0.5 NNE 7 9 4 5 1023.5 1023.5 0.0
29/06:00pm 10.2 10.0 9.1 93 0.5 CALM 0 0 0 0 1023.4 1023.4 0.0
29/05:30pm 11.1 11.2 10.0 93 0.6 CALM 0 0 0 0 1023.2 1023.2 0.0
29/05:00pm 11.8 11.8 9.9 88 1.0 CALM 0 0 0 0 1023.2 1023.2 0.0
29/04:30pm 13.5 12.6 10.7 83 1.5 NNE 6 7 3 4 1023.3 1023.3 0.0
29/04:00pm 14.7 13.2 10.7 77 2.1 NNE 9 9 5 5 1023.3 1023.3 0.0
29/03:30pm 15.8 14.9 10.6 71 2.8 NNW 6 13 3 7 1023.5 1023.5 0.0
29/03:00pm 15.8 14.4 8.8 63 3.6 NNW 6 7 3 4 1023.4 1023.4 0.0
29/02:30pm 16.0 14.4 8.0 59 4.0 NNW 6 7 3 4 1023.8 1023.8 0.0
29/02:00pm 16.6 14.8 7.8 56 4.4 NNW 7 11 4 6 1024.0 1024.0 0.0
29/01:30pm 16.9 15.0 9.1 60 4.0 NNW 9 13 5 7 1024.4 1024.4 0.0
29/01:00pm 15.9 14.2 9.8 67 3.2 NW 9 13 5 7 1024.9 1024.9 0.0
29/12:30pm 14.3 12.6 9.9 75 2.3 NW 9 13 5 7 1025.5 1025.5 0.0
29/12:00pm 13.5 11.8 9.9 79 1.8 NW 9 15 5 8 1026.1 1026.1 0.0
29/11:30am 12.8 10.3 9.8 82 1.5 NW 13 19 7 10 1026.8 1026.8 0.0
29/11:00am 12.4 10.4 10.0 85 1.2 WNW 11 20 6 11 1027.0 1027.0 0.0
29/10:30am 11.5 7.8 9.6 88 1.0 WNW 19 26 10 14 1027.4 1027.4 0.0
29/10:00am 10.3 6.7 9.7 96 0.3 WNW 19 30 10 16 1027.7 1027.7 0.0
29/09:30am 9.9 7.1 9.9 100 0.0 WNW 15 20 8 11 1027.6 1027.6 0.0
29/09:00am 8.9 6.6 8.9 100 0.0 WNW 11 17 6 9 1027.5 1027.5 0.0
29/08:30am 8.1 6.0 8.1 100 0.0 WNW 9 15 5 8 1027.6 1027.6 0.0
29/08:00am 5.7 4.0 5.7 100 0.0 WNW 4 7 2 4 1027.4 1027.4 0.0
29/07:42am 5.3 3.9 5.3 100 0.0 WNW 2 7 1 4 1027.3 1027.3 0.0
29/07:30am 4.9 3.8 4.9 100 0.0 CALM 0 0 0 0 1027.3 1027.3 0.0
29/07:26am 4.8 3.6 4.8 100 0.0 CALM 0 0 0 0 1027.3 1027.3 0.0
29/07:00am 4.0 2.3 4.0 100 0.0 WNW 2 7 1 4 1027.3 1027.3 0.0
29/06:57am 4.1 2.8 4.1 100 0.0 CALM 0 7 0 4 1027.2 1027.2 0.0
29/06:33am 4.5 2.5 4.5 100 0.0 WNW 4 6 2 3 1027.2 1027.2 0.0
29/06:30am 4.2 1.8 4.2 100 0.0 WNW 6 6 3 3 1027.1 1027.1 0.0
29/06:27am 4.1 1.7 4.1 100 0.0 WNW 6 6 3 3 1027.1 1027.1 0.0
29/06:25am 4.6 2.3 4.6 100 0.0 WNW 6 6 3 3 1027.1 1027.1 0.0
29/06:23am 4.5 2.1 4.5 100 0.0 WNW 6 6 3 3 1027.1 1027.1 0.0
29/06:00am 4.9 2.4 4.9 100 0.0 WNW 7 9 4 5 1026.8 1026.8 0.0
29/05:30am 5.5 4.5 5.5 100 0.0 CALM 0 0 0 0 1026.8 1026.8 0.0
29/05:00am 5.7 3.6 5.7 100 0.0 WNW 6 7 3 4 1026.7 1026.7 0.0
29/04:45am 5.7 3.4 5.7 100 0.0 WNW 7 9 4 5 1026.3 1026.3 0.0
29/04:30am 5.0 3.9 4.9 99 0.0 CALM 0 0 0 0 1026.1 1026.1 0.0
29/04:11am 5.0 3.9 4.9 99 0.0 CALM 0 0 0 0 1026.3 1026.3 0.0
29/04:00am 5.4 4.3 5.3 99 0.0 CALM 0 0 0 0 1026.5 1026.5 0.0
29/03:42am 5.4 4.3 5.3 99 0.0 CALM 0 0 0 0 1026.6 1026.6 0.0
29/03:30am 5.9 4.9 5.8 99 0.0 CALM 0 0 0 0 1026.7 1026.7 0.0
29/03:12am 6.6 5.4 6.3 98 0.1 WNW 2 6 1 3 1026.8 1026.8 0.0
29/03:10am 6.7 5.5 6.4 98 0.1 WNW 2 6 1 3 1026.8 1026.8 0.0
29/03:00am 6.6 4.6 6.3 98 0.1 WNW 6 7 3 4 1027.2 1027.2 0.0
29/02:30am 7.5 6.4 7.1 97 0.2 WNW 2 7 1 4 1027.1 1027.1 0.0
29/02:00am 8.5 7.3 7.9 96 0.3 WNW 4 7 2 4 1027.3 1027.3 0.0
29/01:30am 9.5 7.6 8.9 96 0.3 WNW 9 13 5 7 1027.6 1027.6 0.0
29/01:00am 9.3 7.7 8.8 97 0.2 W 7 11 4 6 1027.8 1027.8 0.0
29/12:30am 9.2 7.8 8.9 98 0.1 W 6 7 3 4 1028.1 1028.1 0.0
29/12:00am 9.3 7.4 9.2 99 0.0 W 9 13 5 7 1028.3 1028.3 0.0
 
Date/Time
EST
Temp
°C
App
Temp
°C
Dew
Point
°C
Rel
Hum
%
Delta-T
°C
Wind Press
QNH
hPa
Press
MSL
hPa
Rain since
9am
mm
Dir  Spd
km/h
Gust
km/h
Spd
kts
Gust
kts
28/11:30pm 8.9 7.5 8.8 99 0.0 W 6 11 3 6 1028.5 1028.5 0.0
28/11:00pm 7.5 5.7 7.2 98 0.1 W 6 9 3 5 1028.2 1028.2 0.0
28/10:30pm 8.0 6.3 7.6 97 0.2 W 6 11 3 6 1028.5 1028.5 0.0
28/10:00pm 8.5 7.6 7.6 94 0.4 W 2 7 1 4 1028.8 1028.8 0.0
28/09:30pm 9.9 9.6 8.8 93 0.5 CALM 0 0 0 0 1028.9 1028.9 0.0
28/09:00pm 10.5 8.7 9.3 92 0.6 W 9 11 5 6 1028.8 1028.8 0.0
28/08:30pm 10.0 9.1 9.2 95 0.4 W 4 11 2 6 1029.1 1029.1 0.0
28/08:00pm 10.3 9.0 9.1 92 0.6 W 6 9 3 5 1029.1 1029.1 0.0
28/07:30pm 10.3 9.0 9.1 92 0.6 WSW 6 11 3 6 1029.1 1029.1 0.0
28/07:00pm 9.8 7.8 8.7 93 0.5 WSW 9 11 5 6 1029.1 1029.1 0.0
28/06:30pm 11.0 10.2 9.8 92 0.6 WSW 4 7 2 4 1028.9 1028.9 0.0
28/06:00pm 10.4 8.9 9.2 92 0.6 WSW 7 9 4 5 1028.8 1028.8 0.0
28/05:30pm 10.8 10.6 9.1 89 0.8 CALM 0 0 0 0 1028.5 1028.5 0.0
28/05:00pm 12.3 11.2 9.9 85 1.2 WSW 6 9 3 5 1028.4 1028.4 0.0
28/04:30pm 13.0 11.3 10.0 82 1.5 SSW 9 13 5 7 1028.4 1028.4 0.0
28/04:00pm 13.4 11.8 10.2 81 1.6 SSW 9 15 5 8 1028.5 1028.5 0.0
28/03:30pm 13.6 12.0 10.2 80 1.8 W 9 11 5 6 1028.6 1028.6 0.0
28/03:00pm 13.2 11.9 10.0 81 1.6 W 7 9 4 5 1028.9 1028.9 0.0
28/02:30pm 13.4 11.1 10.6 83 1.5 WSW 13 19 7 10 1028.8 1028.8 0.0
28/02:00pm 13.0 11.0 10.0 82 1.5 SW 11 17 6 9 1029.0 1029.0 0.0
28/01:30pm 12.4 10.5 10.5 88 1.0 W 11 20 6 11 1029.0 1029.0 0.0
28/01:00pm 13.3 11.6 9.7 79 1.8 S 9 15 5 8 1029.4 1029.4 0.0
28/12:30pm 14.1 11.1 7.9 66 3.1 WNW 13 17 7 9 1029.4 1029.4 0.0
28/12:00pm 13.5 10.5 7.7 68 2.8 NW 13 17 7 9 1029.8 1029.8 0.0
28/11:30am 12.6 10.0 7.7 72 2.4 WNW 11 15 6 8 1030.4 1030.4 0.0
28/11:00am 12.0 9.3 7.5 74 2.2 NW 11 17 6 9 1030.6 1030.6 0.0
28/10:30am 11.5 8.9 7.6 77 1.9 W 11 17 6 9 1031.0 1031.0 0.0
28/10:00am 10.5 8.2 7.4 81 1.5 WNW 9 13 5 7 1030.9 1030.9 0.0
28/09:30am 10.4 7.0 6.0 74 2.0 W 13 20 7 11 1031.2 1031.2 0.0
28/09:00am 10.7 7.5 5.3 69 2.4 WNW 11 17 6 9 1030.7 1030.7 0.0
28/08:30am 9.2 5.6 5.0 75 1.9 WNW 13 19 7 10 1030.4 1030.4 0.0
28/08:00am 8.9 5.2 4.5 74 1.9 WNW 13 19 7 10 1030.2 1030.2 0.0
28/07:30am 8.3 4.6 4.3 76 1.8 WNW 13 19 7 10 1029.9 1029.9 0.0
28/07:00am 8.1 4.3 4.1 76 1.7 WNW 13 19 7 10 1029.6 1029.6 0.0
28/06:30am 8.3 4.5 4.1 75 1.8 WNW 13 19 7 10 1029.4 1029.4 0.0
28/06:00am 7.7 3.1 3.6 75 1.7 WNW 17 22 9 12 1029.1 1029.1 0.0
28/05:30am 8.0 4.3 4.2 77 1.7 WNW 13 17 7 9 1028.8 1028.8 0.0
28/05:00am 7.1 3.3 3.7 79 1.4 NW 13 17 7 9 1028.4 1028.4 0.0
28/04:30am 7.3 3.4 3.5 77 1.6 W 13 17 7 9 1028.0 1028.0 0.0
28/04:00am 7.3 3.3 3.0 74 1.8 W 13 17 7 9 1027.9 1027.9 0.0
28/03:30am 7.5 3.9 3.2 74 1.8 W 11 15 6 8 1028.3 1028.3 0.0
28/03:00am 7.4 4.2 2.9 73 1.9 WSW 9 13 5 7 1028.4 1028.4 0.0
28/02:30am 7.5 4.6 2.8 72 2.0 W 7 13 4 7 1028.5 1028.5 0.0
28/02:00am 8.2 4.6 2.9 69 2.2 W 11 13 6 7 1028.6 1028.6 0.0
28/01:30am 9.2 6.1 3.4 67 2.5 W 9 13 5 7 1028.8 1028.8 0.0
28/01:00am 9.0 5.3 2.6 64 2.7 W 11 15 6 8 1028.6 1028.6 0.0
28/12:30am 9.7 6.1 3.0 63 2.9 W 11 15 6 8 1029.0 1029.0 0.0
28/12:00am 9.0 5.0 2.6 64 2.7 WNW 13 17 7 9 1029.0 1029.0 0.0
 
Date/Time
EST
Temp
°C
App
Temp
°C
Dew
Point
°C
Rel
Hum
%
Delta-T
°C
Wind Press
QNH
hPa
Press
MSL
hPa
Rain since
9am
mm
Dir  Spd
km/h
Gust
km/h
Spd
kts
Gust
kts
27/11:30pm 9.7 6.0 2.6 61 3.0 WNW 11 15 6 8 1029.2 1029.2 0.0
27/11:00pm 9.8 5.7 2.4 60 3.1 W 13 19 7 10 1029.4 1029.4 0.0
27/10:30pm 9.0 5.0 2.8 65 2.6 WNW 13 17 7 9 1029.2 1029.2 0.0
27/10:00pm 10.0 6.5 3.3 63 2.9 WNW 11 15 6 8 1029.2 1029.2 0.0
27/09:30pm 9.7 6.2 3.7 66 2.6 W 11 13 6 7 1029.3 1029.3 0.0
27/09:00pm 8.8 5.2 3.2 68 2.4 W 11 15 6 8 1029.1 1029.1 0.0
27/08:30pm 7.9 5.0 2.8 70 2.1 S 7 11 4 6 1029.0 1029.0 0.0
27/08:00pm 8.1 4.5 3.2 71 2.1 W 11 15 6 8 1028.7 1028.7 0.0
27/07:30pm 9.8 7.1 2.4 60 3.1 SSW 6 9 3 5 1028.2 1028.2 0.0
27/07:00pm 10.7 6.8 3.3 60 3.2 SSW 13 20 7 11 1027.7 1027.7 0.0
27/06:30pm 11.1 6.5 3.9 61 3.2 SSW 17 24 9 13 1027.6 1027.6 0.0
27/06:00pm 11.6 7.1 4.1 60 3.3 S 17 32 9 17 1027.1 1027.1 0.0
27/05:30pm 11.8 7.7 4.1 59 3.5 S 15 28 8 15 1026.8 1026.8 0.0
27/05:00pm 12.7 7.9 4.4 57 3.8 S 19 30 10 16 1026.6 1026.6 0.0
27/04:30pm 13.4 8.7 5.3 58 3.8 S 19 24 10 13 1026.4 1026.4 0.0
27/04:00pm 14.9 10.2 6.2 56 4.2 S 20 35 11 19 1026.3 1026.3 0.0
27/03:30pm 15.9 11.3 5.8 51 4.9 SSW 19 26 10 14 1025.6 1025.6 0.0
27/03:00pm 15.8 11.5 6.8 55 4.4 SSW 19 26 10 14 1025.3 1025.3 0.0
27/02:30pm 16.3 11.2 5.9 50 5.0 SSW 22 30 12 16 1025.1 1025.1 0.0
27/02:00pm 16.2 11.7 6.1 51 4.9 SW 19 30 10 16 1024.8 1024.8 0.0
27/01:30pm 17.0 12.5 6.8 51 5.1 SW 20 28 11 15 1024.8 1024.8 0.0
27/01:00pm 16.5 11.9 6.3 51 5.0 SW 20 32 11 17 1024.8 1024.8 0.0
27/12:30pm 17.2 12.3 6.7 50 5.2 SSW 22 32 12 17 1025.0 1025.0 0.0
27/12:00pm 16.5 11.0 6.1 50 5.0 SW 24 35 13 19 1025.2 1025.2 0.0
27/11:30am 16.2 10.6 5.2 48 5.2 SSW 24 39 13 21 1025.5 1025.5 0.0
27/11:00am 16.0 10.7 5.0 48 5.2 SW 22 30 12 16 1025.7 1025.7 0.0
27/10:30am 15.8 12.1 6.5 54 4.5 WSW 15 22 8 12 1026.0 1026.0 0.0
27/10:00am 14.4 11.0 7.7 64 3.3 W 15 19 8 10 1026.0 1026.0 0.0
27/09:30am 12.6 8.8 7.5 71 2.5 WNW 17 24 9 13 1025.8 1025.8 0.0
27/09:00am 11.5 8.0 7.4 76 2.0 W 15 20 8 11 1025.7 1025.7 0.0
27/08:30am 10.7 7.2 7.4 80 1.6 WNW 15 22 8 12 1025.5 1025.5 0.0
27/08:00am 9.4 5.5 7.0 85 1.1 WNW 17 20 9 11 1025.6 1025.6 0.0
27/07:30am 8.4 5.1 6.4 87 0.9 WNW 13 15 7 8 1025.7 1025.7 0.0
27/07:00am 7.8 4.4 6.1 89 0.8 WNW 13 19 7 10 1025.3 1025.3 0.0
27/06:30am 7.9 3.8 6.2 89 0.8 WNW 17 20 9 11 1025.1 1025.1 0.0

Other formats

Comma delimited format used in spreadsheet applications
http://www.bom.gov.au/fwo/IDN60801/IDN60801.94650.axf

JavaScript Object Notation format (JSON) in row-major order
http://www.bom.gov.au/fwo/IDN60801/IDN60801.94650.json

Data quality

Most of these data are generated automatically and are frequently updated. Quality checks on data are not normally performed. It is possible for incorrect values to appear. Refer to information at About Latest Weather Observations and please check the disclaimer before using these data.